createdAt,value
2022-10-13T00:01:45.814Z,11.44
2022-10-13T00:04:15.609Z,11.43
2022-10-13T00:06:44.841Z,11.42
2022-10-13T00:09:14.731Z,11.50
2022-10-13T00:11:44.021Z,11.53
2022-10-13T00:14:13.319Z,11.52
2022-10-13T00:16:42.569Z,11.52
2022-10-13T00:19:15.055Z,11.55
2022-10-13T00:21:43.083Z,11.58
2022-10-13T00:24:12.713Z,11.67
2022-10-13T00:26:42.213Z,11.71
2022-10-13T00:29:13.207Z,11.74
2022-10-13T00:31:42.656Z,11.82
2022-10-13T00:34:11.918Z,11.84
2022-10-13T00:36:41.218Z,11.91
2022-10-13T00:39:10.628Z,11.98
2022-10-13T00:41:39.975Z,12.03
2022-10-13T00:44:30.692Z,12.06
2022-10-13T00:47:00.211Z,12.11
2022-10-13T00:49:31.220Z,12.11
2022-10-13T00:52:00.799Z,12.09
2022-10-13T00:54:30.618Z,12.11
2022-10-13T00:56:59.846Z,12.21
2022-10-13T00:59:29.783Z,12.17
2022-10-13T01:02:00.197Z,12.15
2022-10-13T01:04:42.160Z,12.18
2022-10-13T01:07:11.805Z,12.20
2022-10-13T01:09:42.618Z,12.22
2022-10-13T01:12:44.235Z,12.17
2022-10-13T01:15:42.736Z,12.15
2022-10-13T01:18:21.005Z,12.22
2022-10-13T01:21:03.160Z,12.26
2022-10-13T01:23:47.979Z,12.28
2022-10-13T01:26:32.464Z,12.28
2022-10-13T01:29:27.259Z,12.30
2022-10-13T01:32:14.633Z,12.34
2022-10-13T01:34:56.210Z,12.40
2022-10-13T01:37:36.142Z,12.39
2022-10-13T01:40:17.683Z,12.36
2022-10-13T01:42:59.124Z,12.31
2022-10-13T01:45:31.689Z,12.33
2022-10-13T01:48:00.468Z,12.42
2022-10-13T01:50:29.959Z,12.41
2022-10-13T01:53:02.241Z,12.46
2022-10-13T01:55:32.144Z,12.47
2022-10-13T01:58:01.450Z,12.53
2022-10-13T02:00:32.835Z,12.60
2022-10-13T02:03:17.507Z,12.54
2022-10-13T02:05:49.674Z,12.49
2022-10-13T02:08:24.617Z,12.43
2022-10-13T02:10:59.827Z,12.48
2022-10-13T02:13:31.657Z,12.42
2022-10-13T02:16:02.580Z,12.35
2022-10-13T02:18:36.216Z,12.42
2022-10-13T02:21:07.452Z,12.40
2022-10-13T02:23:37.449Z,12.40
2022-10-13T02:26:07.006Z,12.46
2022-10-13T02:28:38.345Z,12.44
2022-10-13T02:31:10.365Z,12.45
2022-10-13T02:33:39.734Z,12.52
2022-10-13T02:36:09.216Z,12.51
2022-10-13T02:38:38.754Z,12.57
2022-10-13T02:41:08.104Z,12.56
2022-10-13T02:43:38.770Z,12.61
2022-10-13T02:46:07.997Z,12.48
2022-10-13T02:48:37.580Z,12.42
2022-10-13T02:51:07.127Z,12.37
2022-10-13T02:53:36.549Z,12.39
2022-10-13T02:56:06.448Z,12.41
2022-10-13T02:58:39.725Z,12.44
2022-10-13T03:01:10.734Z,12.50
2022-10-13T03:03:40.598Z,12.47
2022-10-13T03:06:10.015Z,12.50
2022-10-13T03:08:40.676Z,12.56
2022-10-13T03:11:09.952Z,12.57
2022-10-13T03:13:39.371Z,12.55
2022-10-13T03:16:09.394Z,12.58
2022-10-13T03:18:38.821Z,12.57
2022-10-13T03:21:08.204Z,12.61
2022-10-13T03:23:38.730Z,12.59
2022-10-13T03:26:08.262Z,12.55
2022-10-13T03:28:37.697Z,12.61
2022-10-13T03:31:09.470Z,12.62
2022-10-13T03:33:38.743Z,12.61
2022-10-13T03:36:08.327Z,12.64
2022-10-13T03:38:37.800Z,12.63
2022-10-13T03:41:08.882Z,12.65
2022-10-13T03:43:38.342Z,12.64
2022-10-13T03:46:08.812Z,12.57
2022-10-13T03:48:38.521Z,12.59
2022-10-13T03:51:12.924Z,12.60
2022-10-13T03:53:43.947Z,12.62
2022-10-13T03:56:18.597Z,12.63
2022-10-13T03:58:55.351Z,12.64
2022-10-13T04:01:26.912Z,12.69
2022-10-13T04:03:57.333Z,12.73
2022-10-13T04:06:27.406Z,12.67
2022-10-13T04:08:56.902Z,12.66
2022-10-13T04:11:26.325Z,12.58
2022-10-13T04:13:59.941Z,12.60
2022-10-13T04:16:31.284Z,12.51
2022-10-13T04:19:04.503Z,12.45
2022-10-13T04:21:35.073Z,12.45
2022-10-13T04:24:04.941Z,12.40
2022-10-13T04:26:37.966Z,12.34
2022-10-13T04:29:12.095Z,12.37
2022-10-13T04:31:43.897Z,12.33
2022-10-13T04:34:13.446Z,12.32
2022-10-13T04:36:43.277Z,12.31
2022-10-13T04:39:12.524Z,12.33
2022-10-13T04:41:41.949Z,12.43
2022-10-13T04:44:11.446Z,12.38
2022-10-13T04:46:40.689Z,12.39
2022-10-13T04:49:10.148Z,12.34
2022-10-13T04:51:40.099Z,12.27
2022-10-13T04:54:10.097Z,12.24
2022-10-13T04:56:39.490Z,12.26
2022-10-13T04:59:08.871Z,12.17
2022-10-13T05:01:38.431Z,12.13
2022-10-13T05:04:10.257Z,12.16
2022-10-13T05:07:05.277Z,12.16
2022-10-13T05:09:16.566Z,12.10
2022-10-13T05:11:45.815Z,12.13
2022-10-13T05:14:15.321Z,12.07
2022-10-13T05:16:44.689Z,12.00
2022-10-13T05:19:15.813Z,11.98
2022-10-13T05:21:45.547Z,12.00
2022-10-13T05:24:16.268Z,12.01
2022-10-13T05:26:47.385Z,11.98
2022-10-13T05:29:18.443Z,11.94
2022-10-13T05:31:48.478Z,11.87
2022-10-13T05:34:17.934Z,11.83
2022-10-13T05:36:47.585Z,11.81
2022-10-13T05:39:16.891Z,11.80
2022-10-13T05:41:46.261Z,11.78
2022-10-13T05:44:17.631Z,11.79
2022-10-13T05:46:48.775Z,11.82
2022-10-13T05:49:18.287Z,11.86
2022-10-13T05:51:50.119Z,11.85
2022-10-13T05:54:31.475Z,11.90
2022-10-13T05:57:16.063Z,11.92
2022-10-13T05:59:53.844Z,11.89
2022-10-13T06:02:25.210Z,11.92
2022-10-13T06:04:56.379Z,11.94
2022-10-13T06:07:26.231Z,11.94
2022-10-13T06:09:55.474Z,11.98
2022-10-13T06:12:24.698Z,11.92
2022-10-13T06:14:54.154Z,11.86
2022-10-13T06:17:24.116Z,11.80
2022-10-13T06:19:53.378Z,11.83
2022-10-13T06:22:23.162Z,11.76
2022-10-13T06:24:52.546Z,11.71
2022-10-13T06:27:21.789Z,11.71
2022-10-13T06:29:51.486Z,11.70
2022-10-13T06:32:21.307Z,11.69
2022-10-13T06:34:51.430Z,11.67
2022-10-13T06:37:26.224Z,11.66
2022-10-13T06:39:51.749Z,11.64
2022-10-13T06:42:21.484Z,11.62
2022-10-13T06:44:52.745Z,11.58
2022-10-13T06:47:22.440Z,11.59
2022-10-13T06:49:51.859Z,11.57
2022-10-13T06:52:21.734Z,11.61
2022-10-13T06:54:51.279Z,11.61
2022-10-13T06:57:20.499Z,11.61
2022-10-13T06:59:50.187Z,11.63
2022-10-13T07:02:20.072Z,11.63
2022-10-13T07:04:49.728Z,11.64
2022-10-13T07:07:19.388Z,11.65
2022-10-13T07:09:49.608Z,11.68
2022-10-13T07:12:19.569Z,11.68
2022-10-13T07:14:49.480Z,11.70
2022-10-13T07:17:19.198Z,11.72
2022-10-13T07:19:49.204Z,11.74
2022-10-13T07:22:18.600Z,11.77
2022-10-13T07:24:48.114Z,11.81
2022-10-13T07:27:17.363Z,11.83
2022-10-13T07:29:46.934Z,11.87
2022-10-13T07:32:16.437Z,11.91
2022-10-13T07:34:46.035Z,11.94
2022-10-13T07:37:15.652Z,12.03
2022-10-13T07:39:45.045Z,12.03
2022-10-13T07:42:14.278Z,12.04
2022-10-13T07:44:43.648Z,12.05
2022-10-13T07:47:12.935Z,12.09
2022-10-13T07:49:42.964Z,12.08
2022-10-13T07:52:12.187Z,12.13
2022-10-13T07:54:41.515Z,12.17
2022-10-13T07:57:10.904Z,12.21
2022-10-13T07:59:40.306Z,12.21
2022-10-13T08:02:11.480Z,12.22
2022-10-13T08:04:41.160Z,12.24
2022-10-13T08:07:11.425Z,12.26
2022-10-13T08:09:40.870Z,12.29
2022-10-13T08:12:10.098Z,12.27
2022-10-13T08:14:39.623Z,12.32
2022-10-13T08:17:09.845Z,12.34
2022-10-13T08:19:39.086Z,12.40
2022-10-13T08:22:10.011Z,12.45
2022-10-13T08:24:40.544Z,12.48
2022-10-13T08:27:12.044Z,12.54
2022-10-13T08:29:43.699Z,12.61
2022-10-13T08:32:13.008Z,12.63
2022-10-13T08:34:42.465Z,12.72
2022-10-13T08:37:16.796Z,12.76
2022-10-13T08:39:46.827Z,12.72
2022-10-13T08:42:22.599Z,12.79
2022-10-13T08:45:36.136Z,12.79
2022-10-13T08:47:41.097Z,12.89
2022-10-13T08:50:14.983Z,12.91
2022-10-13T08:53:01.183Z,13.10
2022-10-13T08:55:47.835Z,13.28
2022-10-13T08:58:27.467Z,13.25
2022-10-13T09:01:21.542Z,13.32
2022-10-13T09:03:59.994Z,13.34
2022-10-13T09:06:35.113Z,13.42
2022-10-13T09:09:08.816Z,13.35
2022-10-13T09:11:41.289Z,13.38
2022-10-13T09:14:13.674Z,13.50
2022-10-13T09:16:45.274Z,13.50
2022-10-13T09:19:18.669Z,13.53
2022-10-13T09:21:48.974Z,13.55
2022-10-13T09:24:21.440Z,13.70
2022-10-13T09:26:53.034Z,13.58
2022-10-13T09:29:25.480Z,13.76
2022-10-13T09:32:12.914Z,13.83
2022-10-13T09:34:42.689Z,13.76
2022-10-13T09:37:20.859Z,13.88
2022-10-13T09:40:10.148Z,13.85
2022-10-13T09:42:39.758Z,13.81
2022-10-13T09:45:16.755Z,13.80
2022-10-13T09:48:04.419Z,13.66
2022-10-13T09:50:35.728Z,13.68
2022-10-13T09:53:14.452Z,13.78
2022-10-13T09:55:45.437Z,13.96
2022-10-13T09:58:25.049Z,14.12
2022-10-13T10:00:55.577Z,14.22
2022-10-13T10:03:36.728Z,14.20
2022-10-13T10:06:08.063Z,14.09
2022-10-13T10:09:07.620Z,13.95
2022-10-13T10:11:30.376Z,13.92
2022-10-13T10:14:01.368Z,13.92
2022-10-13T10:16:36.753Z,14.02
2022-10-13T10:19:18.263Z,14.05
2022-10-13T10:22:07.319Z,13.90
2022-10-13T10:24:55.120Z,13.90
2022-10-13T10:27:40.014Z,13.89
2022-10-13T10:30:16.978Z,14.14
2022-10-13T10:33:08.261Z,14.23
2022-10-13T10:35:49.713Z,14.24
2022-10-13T10:38:33.741Z,14.81
2022-10-13T10:41:14.690Z,15.15
2022-10-13T10:44:03.150Z,15.29
2022-10-13T10:46:37.672Z,15.13
2022-10-13T10:49:16.150Z,14.81
2022-10-13T10:51:47.758Z,14.49
2022-10-13T10:54:34.986Z,14.37
2022-10-13T10:57:13.643Z,14.34
2022-10-13T10:59:51.762Z,14.33
2022-10-13T11:02:36.234Z,14.05
2022-10-13T11:05:06.626Z,13.61
2022-10-13T11:07:43.066Z,13.45
2022-10-13T11:10:21.714Z,13.52
2022-10-13T11:12:57.283Z,13.62
2022-10-13T11:15:28.675Z,13.52
2022-10-13T11:17:58.511Z,13.60
2022-10-13T11:20:36.969Z,13.64
2022-10-13T11:23:15.030Z,13.69
2022-10-13T11:25:45.660Z,13.68
2022-10-13T11:28:27.533Z,13.73
2022-10-13T11:30:58.469Z,13.67
2022-10-13T11:33:43.044Z,13.76
2022-10-13T11:36:41.430Z,13.75
2022-10-13T11:39:28.540Z,13.83
2022-10-13T11:42:19.723Z,13.77
2022-10-13T11:45:00.886Z,13.77
2022-10-13T11:48:05.323Z,13.69
2022-10-13T11:50:38.120Z,13.75
2022-10-13T11:53:24.810Z,13.69
2022-10-13T11:55:59.743Z,13.81
2022-10-13T11:58:34.226Z,13.83
2022-10-13T12:01:15.118Z,13.93
2022-10-13T12:03:46.514Z,14.06
2022-10-13T12:06:34.039Z,14.02
2022-10-13T12:09:06.323Z,13.94
2022-10-13T12:11:37.711Z,13.98
2022-10-13T12:14:10.000Z,14.04
2022-10-13T12:16:39.424Z,14.06
2022-10-13T12:19:11.064Z,14.07
2022-10-13T12:21:42.179Z,14.11
2022-10-13T12:24:13.105Z,14.14
2022-10-13T12:26:42.620Z,14.18
2022-10-13T12:29:14.765Z,14.20
2022-10-13T12:31:49.706Z,14.37
2022-10-13T12:34:27.664Z,14.43
2022-10-13T12:37:00.164Z,14.53
2022-10-13T12:39:34.205Z,14.54
2022-10-13T12:42:04.697Z,14.65
2022-10-13T12:44:36.071Z,14.79
2022-10-13T12:47:05.589Z,14.81
2022-10-13T12:49:39.089Z,14.68
2022-10-13T12:52:11.726Z,14.52
2022-10-13T12:54:40.930Z,14.41
2022-10-13T12:57:25.978Z,14.26
2022-10-13T12:59:55.451Z,14.13
2022-10-13T13:02:27.492Z,13.92
2022-10-13T13:04:56.818Z,13.86
2022-10-13T13:07:37.429Z,13.85
2022-10-13T13:10:15.663Z,13.82
2022-10-13T13:12:45.258Z,13.94
2022-10-13T13:15:21.392Z,14.11
2022-10-13T13:17:58.619Z,14.21
2022-10-13T13:20:29.969Z,14.08
2022-10-13T13:22:59.658Z,14.15
2022-10-13T13:25:29.253Z,14.12
2022-10-13T13:27:58.879Z,14.15
2022-10-13T13:30:28.297Z,14.16
2022-10-13T13:32:57.520Z,14.17
2022-10-13T13:35:27.087Z,14.26
2022-10-13T13:37:56.329Z,14.18
2022-10-13T13:40:28.601Z,14.14
2022-10-13T13:42:57.889Z,14.11
2022-10-13T13:45:28.841Z,14.22
2022-10-13T13:48:00.850Z,14.20
2022-10-13T13:50:35.496Z,14.16
2022-10-13T13:53:05.151Z,14.17
2022-10-13T13:55:34.622Z,14.15
2022-10-13T13:58:05.034Z,14.28
2022-10-13T14:00:34.292Z,14.21
2022-10-13T14:03:03.572Z,14.21
2022-10-13T14:05:33.145Z,14.21
2022-10-13T14:08:02.368Z,14.24
2022-10-13T14:10:31.693Z,14.29
2022-10-13T14:13:01.020Z,14.23
2022-10-13T14:15:30.395Z,14.20
2022-10-13T14:17:59.656Z,14.19
2022-10-13T14:20:29.000Z,14.18
2022-10-13T14:22:58.365Z,14.15
2022-10-13T14:25:27.843Z,14.06
2022-10-13T14:27:57.228Z,13.95
2022-10-13T14:30:26.702Z,13.84
2022-10-13T14:32:56.145Z,13.84
2022-10-13T14:35:27.260Z,13.79
2022-10-13T14:37:56.538Z,13.77
2022-10-13T14:40:25.783Z,13.68
2022-10-13T14:42:55.197Z,13.65
2022-10-13T14:45:24.451Z,13.62
2022-10-13T14:47:54.014Z,13.60
2022-10-13T14:50:23.331Z,13.65
2022-10-13T14:52:54.286Z,13.68
2022-10-13T14:55:24.850Z,13.72
2022-10-13T14:57:54.124Z,13.83
2022-10-13T15:00:23.482Z,13.89
2022-10-13T15:02:55.690Z,13.97
2022-10-13T15:05:26.680Z,14.04
2022-10-13T15:07:55.935Z,13.99
2022-10-13T15:10:25.283Z,13.89
2022-10-13T15:12:54.667Z,13.82
2022-10-13T15:15:24.009Z,13.84
2022-10-13T15:17:55.167Z,13.86
2022-10-13T15:20:24.515Z,13.82
2022-10-13T15:22:54.330Z,13.80
2022-10-13T15:25:23.679Z,13.81
2022-10-13T15:27:52.924Z,13.80
2022-10-13T15:30:22.263Z,13.82
2022-10-13T15:32:52.561Z,13.81
2022-10-13T15:35:21.800Z,13.82
2022-10-13T15:37:51.192Z,13.86
2022-10-13T15:40:20.560Z,13.83
2022-10-13T15:42:49.798Z,13.83
2022-10-13T15:45:19.193Z,13.84
2022-10-13T15:47:48.709Z,13.79
2022-10-13T15:50:18.016Z,13.81
2022-10-13T15:52:47.474Z,13.80
2022-10-13T15:55:17.049Z,13.78
2022-10-13T15:57:46.635Z,13.75
2022-10-13T16:00:17.313Z,13.76
2022-10-13T16:02:48.183Z,13.84
2022-10-13T16:05:17.725Z,13.78
2022-10-13T16:07:47.655Z,13.75
2022-10-13T16:10:17.461Z,13.71
2022-10-13T16:12:49.597Z,13.71
2022-10-13T16:15:19.023Z,13.71
2022-10-13T16:17:48.306Z,13.77
2022-10-13T16:20:17.738Z,13.76
2022-10-13T16:22:47.253Z,13.73
2022-10-13T16:25:17.073Z,13.65
2022-10-13T16:27:46.585Z,13.68
2022-10-13T16:30:16.160Z,13.65
2022-10-13T16:32:45.416Z,13.66
2022-10-13T16:35:14.726Z,13.61
2022-10-13T16:37:43.967Z,13.56
2022-10-13T16:40:13.318Z,13.55
2022-10-13T16:42:43.356Z,13.59
2022-10-13T16:45:13.277Z,13.54
2022-10-13T16:47:42.511Z,13.55
2022-10-13T16:50:12.123Z,13.54
2022-10-13T16:52:41.553Z,13.51
2022-10-13T16:55:10.926Z,13.48
2022-10-13T16:57:40.235Z,13.32
2022-10-13T17:00:10.227Z,13.16
2022-10-13T17:02:39.492Z,13.17
2022-10-13T17:05:08.902Z,13.15
2022-10-13T17:07:38.299Z,13.18
2022-10-13T17:10:08.532Z,13.12
2022-10-13T17:12:37.784Z,13.10
2022-10-13T17:15:07.915Z,13.04
2022-10-13T17:17:37.263Z,12.98
2022-10-13T17:20:07.087Z,12.95
2022-10-13T17:22:37.890Z,12.89
2022-10-13T17:25:07.897Z,12.87
2022-10-13T17:27:37.749Z,12.84
2022-10-13T17:30:07.689Z,12.82
2022-10-13T17:32:39.937Z,12.78
2022-10-13T17:35:11.217Z,12.79
2022-10-13T17:37:40.589Z,12.72
2022-10-13T17:40:11.942Z,12.75
2022-10-13T17:42:41.334Z,12.67
2022-10-13T17:45:11.295Z,12.64
2022-10-13T17:47:40.758Z,12.61
2022-10-13T17:50:10.451Z,12.57
2022-10-13T17:52:39.688Z,12.51
2022-10-13T17:55:09.504Z,12.49
2022-10-13T17:57:38.865Z,12.43
2022-10-13T18:00:09.461Z,12.40
2022-10-13T18:02:40.963Z,12.44
2022-10-13T18:05:10.485Z,12.34
2022-10-13T18:07:39.728Z,12.33
2022-10-13T18:10:10.939Z,12.30
2022-10-13T18:12:40.357Z,12.34
2022-10-13T18:15:09.957Z,12.30
2022-10-13T18:17:39.285Z,12.31
2022-10-13T18:20:09.018Z,12.32
2022-10-13T18:22:39.621Z,12.33
2022-10-13T18:25:09.344Z,12.34
2022-10-13T18:27:38.617Z,12.38
2022-10-13T18:30:09.957Z,12.43
2022-10-13T18:32:39.553Z,12.44
2022-10-13T18:35:10.791Z,12.44
2022-10-13T18:37:40.225Z,12.45
2022-10-13T18:40:10.209Z,12.43
2022-10-13T18:42:43.343Z,12.41
2022-10-13T18:45:11.213Z,12.34
2022-10-13T18:47:40.718Z,12.33
2022-10-13T18:50:10.507Z,12.33
2022-10-13T18:52:39.778Z,12.32
2022-10-13T18:55:09.252Z,12.30
2022-10-13T18:57:38.531Z,12.28
2022-10-13T19:00:10.415Z,12.22
2022-10-13T19:02:39.645Z,12.14
2022-10-13T19:05:09.558Z,12.06
2022-10-13T19:07:39.310Z,11.99
2022-10-13T19:10:09.505Z,11.96
2022-10-13T19:12:38.809Z,11.90
2022-10-13T19:15:09.163Z,11.86
2022-10-13T19:17:38.568Z,11.93
2022-10-13T19:20:08.650Z,11.89
2022-10-13T19:22:38.052Z,11.84
2022-10-13T19:25:08.895Z,11.79
2022-10-13T19:27:38.219Z,11.77
2022-10-13T19:30:08.606Z,11.74
2022-10-13T19:32:40.065Z,11.74
2022-10-13T19:35:09.663Z,11.75
2022-10-13T19:37:40.032Z,11.77
2022-10-13T19:40:09.630Z,11.78
2022-10-13T19:42:39.027Z,11.80
2022-10-13T19:45:09.723Z,11.82
2022-10-13T19:47:39.130Z,11.85
2022-10-13T19:50:08.674Z,11.85
2022-10-13T19:52:38.138Z,11.85
2022-10-13T19:55:08.015Z,11.81
2022-10-13T19:57:37.730Z,11.79
2022-10-13T20:00:07.946Z,11.79
2022-10-13T20:02:39.099Z,11.78
2022-10-13T20:05:09.138Z,11.76
2022-10-13T20:07:38.756Z,11.75
2022-10-13T20:10:08.187Z,11.72
2022-10-13T20:12:39.329Z,11.70
2022-10-13T20:15:09.911Z,11.70
2022-10-13T20:17:41.304Z,11.72
2022-10-13T20:20:11.480Z,11.72
2022-10-13T20:22:40.967Z,11.75
2022-10-13T20:25:11.268Z,11.78
2022-10-13T20:27:40.719Z,11.81
2022-10-13T20:30:11.346Z,11.84
2022-10-13T20:32:40.880Z,11.87
2022-10-13T20:35:10.446Z,11.87
2022-10-13T20:37:39.835Z,11.89
2022-10-13T20:40:10.094Z,11.90
2022-10-13T20:42:39.469Z,11.86
2022-10-13T20:45:10.196Z,11.92
2022-10-13T20:47:41.326Z,11.94
2022-10-13T20:50:11.234Z,11.94
2022-10-13T20:52:40.643Z,11.95
2022-10-13T20:55:10.583Z,11.93
2022-10-13T20:57:40.132Z,11.94
2022-10-13T21:00:10.680Z,11.94
2022-10-13T21:02:40.101Z,11.96
2022-10-13T21:05:14.046Z,11.96
2022-10-13T21:07:43.439Z,11.98
2022-10-13T21:10:13.098Z,11.97
2022-10-13T21:12:42.526Z,11.96
2022-10-13T21:15:12.345Z,11.98
2022-10-13T21:17:43.853Z,12.00
2022-10-13T21:20:13.168Z,12.00
2022-10-13T21:22:43.173Z,11.99
2022-10-13T21:25:12.869Z,11.99
2022-10-13T21:27:42.250Z,11.98
2022-10-13T21:30:12.125Z,12.00
2022-10-13T21:32:41.815Z,11.99
2022-10-13T21:35:11.495Z,11.96
2022-10-13T21:37:40.747Z,11.87
2022-10-13T21:40:11.099Z,11.79
2022-10-13T21:42:40.405Z,11.70
2022-10-13T21:45:10.700Z,11.67
2022-10-13T21:47:39.959Z,11.61
2022-10-13T21:50:09.805Z,11.59
2022-10-13T21:52:39.430Z,11.62
2022-10-13T21:55:11.146Z,11.64
2022-10-13T21:57:41.349Z,11.68
2022-10-13T22:00:12.231Z,11.68
2022-10-13T22:02:41.683Z,11.72
2022-10-13T22:05:12.920Z,11.74
2022-10-13T22:07:42.197Z,11.79
2022-10-13T22:10:11.578Z,11.81
2022-10-13T22:12:41.314Z,11.83
2022-10-13T22:15:11.911Z,11.84
2022-10-13T22:17:41.426Z,11.85
2022-10-13T22:20:11.010Z,11.86
2022-10-13T22:22:41.008Z,11.90
2022-10-13T22:25:11.079Z,11.90
2022-10-13T22:27:40.561Z,11.91
2022-10-13T22:30:10.773Z,11.90
2022-10-13T22:32:40.191Z,11.88
2022-10-13T22:35:10.042Z,11.90
2022-10-13T22:37:39.555Z,11.83
2022-10-13T22:40:09.789Z,11.78
2022-10-13T22:42:39.163Z,11.71
2022-10-13T22:45:10.753Z,11.72
2022-10-13T22:47:40.123Z,11.75
2022-10-13T22:50:10.062Z,11.76
2022-10-13T22:52:39.538Z,11.81
2022-10-13T22:55:10.592Z,11.83
2022-10-13T22:57:40.535Z,11.80
2022-10-13T23:00:10.890Z,11.76
2022-10-13T23:02:42.121Z,11.66
2022-10-13T23:05:13.779Z,11.63
2022-10-13T23:07:43.332Z,11.61
2022-10-13T23:10:12.735Z,11.57
2022-10-13T23:12:43.758Z,11.56
2022-10-13T23:15:13.137Z,11.56
2022-10-13T23:17:42.587Z,11.59
2022-10-13T23:20:12.188Z,11.62
2022-10-13T23:22:41.853Z,11.69
2022-10-13T23:25:11.406Z,11.75
2022-10-13T23:27:42.245Z,11.81
2022-10-13T23:30:13.118Z,11.83
2022-10-13T23:32:42.498Z,11.89
2022-10-13T23:35:11.808Z,11.92
2022-10-13T23:37:41.382Z,11.92
2022-10-13T23:40:11.692Z,11.97
2022-10-13T23:42:41.188Z,12.00
2022-10-13T23:45:11.204Z,12.02
2022-10-13T23:47:40.504Z,12.02
2022-10-13T23:50:10.479Z,12.05
2022-10-13T23:52:40.104Z,12.05
2022-10-13T23:55:10.268Z,12.07
2022-10-13T23:57:39.535Z,12.10
